Weather History for Chicago Lansing, IL

Change the Weather History Date:

Friday, October 26, 2012

  Actual Average (KMDW) Record (KMDW)
Temperature  
Mean Temperature 42 °F 51 °F  
Max Temperature 46 °F 59 °F 84 °F (1963)
Min Temperature 37 °F 43 °F 22 °F (1942)
Degree Days  
Heating Degree Days 24 14  
Month to date heating degree days 270  
Since 1 July heating degree days 352  
Cooling Degree Days 0 0  
Month to date cooling degree days 13  
Year to date cooling degree days 1042  
Moisture  
Dew Point 31 °F    
Average Humidity 64    
Maximum Humidity 86    
Minimum Humidity 47    
Precipitation  
Precipitation 0.00 in 0.11 in 1.49 in (1997)
Month to date precipitation 2.67  
Year to date precipitation 32.53  
Sea Level Pressure  
Sea Level Pressure 30.25 in    
Wind  
Wind Speed 10 mph (NNW)    
Max Wind Speed 16 mph    
Max Gust Speed 25 mph    
Visibility 10 miles    
Events      
T = Trace of Precipitation, MM = Missing Value Source: NWS Daily Summary

Daily Weather History Graph

Daily Weather History Graph

Search for Another Location

Airport:

Trip Planner

Search our weather history database for the weather conditions in past years. The results will help you decide how hot, cold, wet, or windy it might be!

Date:

Astronomy

Oct. 26, 2012 Rise Set
Actual Time 7:15 AM CDT 5:52 PM CDT
Civil Twilight 6:46 AM CDT 6:20 PM CDT
Nautical Twilight 6:14 AM CDT 6:52 PM CDT
Astronomical Twilight 5:42 AM CDT 7:25 PM CDT
Moon 4:09 PM CDT (10/26) 4:09 AM CDT (10/26)
Length of Visible Light 11h 33m
Length of Day
10h 36m
Waxing Gibbous, 91% of the Moon is Illuminated
Oct 26
Waxing Gibbous
Oct 29
Full
Nov 6
Last Quarter
Nov 13
New
Nov 20
First Quarter

Hourly Weather History & Observations

Time (CDT) Temp. Windchill Dew Point Humidity Pressure Visibility Wind Dir Wind Speed Gust Speed Precip Events Conditions
12:15 AM 44.1 °F 38.6 °F 40.1 °F 86% 30.05 in 10.0 mi NW 10.4 mph 16.1 mph 0.01 in   Overcast
12:35 AM 44.6 °F 38.4 °F 39.2 °F 81% 30.06 in 10.0 mi NW 12.7 mph 18.4 mph N/A   Overcast
12:55 AM 44.6 °F 40.7 °F 39.2 °F 81% 30.10 in 10.0 mi NW 6.9 mph 17.3 mph N/A   Overcast
1:15 AM 44.4 °F 39.5 °F 39.0 °F 81% 30.10 in 10.0 mi NW 9.2 mph - N/A   Overcast
1:35 AM 44.6 °F 39.2 °F 38.5 °F 79% 30.11 in 10.0 mi NW 10.4 mph - N/A   Overcast
1:55 AM 44.6 °F 39.2 °F 37.4 °F 76% 30.11 in 10.0 mi NNW 10.4 mph 18.4 mph N/A   Overcast
2:15 AM 44.2 °F 37.6 °F 36.9 °F 75% 30.11 in 10.0 mi NW 13.8 mph 19.6 mph N/A   Overcast
2:35 AM 44.1 °F 37.7 °F 36.5 °F 75% 30.12 in 10.0 mi NNW 12.7 mph 25.3 mph N/A   Overcast
2:55 AM 43.7 °F 37.7 °F 36.7 °F 76% 30.13 in 10.0 mi NW 11.5 mph 17.3 mph N/A   Overcast
3:15 AM 42.8 °F 37.0 °F 35.6 °F 76% 30.15 in 10.0 mi NW 10.4 mph 17.3 mph N/A   Overcast
3:35 AM 42.1 °F 36.1 °F 34.5 °F 75% 30.16 in 10.0 mi NW 10.4 mph - N/A   Overcast
3:55 AM 41.9 °F 35.4 °F 33.1 °F 71% 30.17 in 10.0 mi NW 11.5 mph 19.6 mph N/A   Overcast
4:15 AM 41.4 °F 33.6 °F 31.5 °F 68% 30.18 in 10.0 mi NNW 15.0 mph 23.0 mph N/A   Overcast
4:35 AM 40.1 °F 32.4 °F 29.3 °F 65% 30.19 in 10.0 mi NNW 13.8 mph 19.6 mph N/A   Scattered Clouds
4:55 AM 39.6 °F 32.1 °F 29.1 °F 66% 30.20 in 10.0 mi NNW 12.7 mph 20.7 mph N/A   Clear
5:15 AM 39.2 °F 34.2 °F 29.3 °F 68% 30.21 in 10.0 mi NNW 6.9 mph - N/A   Clear
5:35 AM 39.2 °F 32.0 °F 29.3 °F 68% 30.22 in 10.0 mi NNW 11.5 mph 16.1 mph N/A   Clear
5:55 AM 38.7 °F 31.4 °F 29.3 °F 69% 30.23 in 10.0 mi NNW 11.5 mph 17.3 mph N/A   Clear
6:15 AM 38.5 °F 31.1 °F 29.3 °F 70% 30.23 in 10.0 mi NNW 11.5 mph 17.3 mph N/A   Clear
6:35 AM 38.3 °F 33.2 °F 29.3 °F 70% 30.23 in 10.0 mi NNW 6.9 mph - N/A   Clear
6:55 AM 37.8 °F 35.3 °F 29.1 °F 71% 30.24 in 10.0 mi North 3.5 mph - N/A   Clear
7:15 AM 37.6 °F 34.0 °F 29.3 °F 72% 30.24 in 10.0 mi NNW 4.6 mph - N/A   Clear
7:35 AM 37.4 °F 32.1 °F 29.3 °F 73% 30.24 in 10.0 mi NNW 6.9 mph - N/A   Clear
7:55 AM 37.6 °F 33.1 °F 30.0 °F 74% 30.25 in 10.0 mi NNW 5.8 mph - N/A   Clear
8:15 AM 39.4 °F 33.8 °F 30.2 °F 70% 30.26 in 10.0 mi NNW 8.1 mph - N/A   Clear
8:35 AM 39.6 °F 34.0 °F 29.5 °F 67% 30.27 in 10.0 mi North 8.1 mph 19.6 mph N/A   Clear
8:55 AM 39.7 °F 31.9 °F 28.6 °F 64% 30.28 in 10.0 mi NNW 13.8 mph 18.4 mph N/A   Clear
9:15 AM 40.1 °F 33.6 °F 27.9 °F 62% 30.29 in 10.0 mi NNW 10.4 mph 18.4 mph N/A   Clear
9:35 AM 41.0 °F 33.9 °F 26.6 °F 57% 30.30 in 10.0 mi NNW 12.7 mph 19.6 mph N/A   Clear
9:55 AM 40.1 °F 33.2 °F 26.6 °F 59% 30.31 in 10.0 mi NNW 11.5 mph - N/A   Clear
10:15 AM 40.5 °F 35.1 °F 26.8 °F 58% 30.32 in 10.0 mi NNW 8.1 mph - N/A   Clear
10:35 AM 40.6 °F 34.8 °F 26.4 °F 57% 30.31 in 10.0 mi NNW 9.2 mph 18.4 mph N/A   Clear
10:55 AM 41.5 °F 35.0 °F 26.8 °F 56% 30.32 in 10.0 mi North 11.5 mph 18.4 mph N/A   Clear
11:15 AM 41.5 °F 36.4 °F 26.6 °F 55% 30.32 in 10.0 mi NNW 8.1 mph 17.3 mph N/A   Clear
11:35 AM 42.4 °F 37.5 °F 27.7 °F 56% 30.32 in 10.0 mi North 8.1 mph 16.1 mph N/A   Clear
11:55 AM 43.5 °F 36.4 °F 28.2 °F 55% 30.32 in 10.0 mi North 15.0 mph 20.7 mph N/A   Clear
12:15 PM 44.8 °F 37.7 °F 28.6 °F 53% 30.31 in 10.0 mi North 16.1 mph 23.0 mph N/A   Clear
12:35 PM 45.3 °F 38.7 °F 29.7 °F 54% 30.31 in 10.0 mi North 15.0 mph 23.0 mph N/A   Clear
12:55 PM 45.3 °F 39.3 °F 28.8 °F 52% 30.31 in 10.0 mi North 12.7 mph 23.0 mph N/A   Clear
1:15 PM 45.9 °F 40.0 °F 28.0 °F 50% 30.30 in 10.0 mi North 12.7 mph 17.3 mph N/A   Clear
1:35 PM 46.2 °F 39.8 °F 29.1 °F 51% 30.29 in 10.0 mi NNE 15.0 mph 19.6 mph N/A   Clear
1:55 PM 45.9 °F 40.0 °F 28.4 °F 51% 30.29 in 10.0 mi North 12.7 mph 18.4 mph N/A   Clear
2:15 PM 46.6 °F - 28.4 °F 49% 30.29 in 10.0 mi North 10.4 mph - N/A   Clear
2:35 PM 46.4 °F 42.4 °F 28.4 °F 50% 30.28 in 10.0 mi NNE 8.1 mph - N/A   Clear
2:55 PM 46.4 °F 41.9 °F 28.4 °F 50% 30.28 in 10.0 mi North 9.2 mph 17.3 mph N/A   Clear
3:15 PM 46.4 °F 40.4 °F 27.3 °F 47% 30.28 in 10.0 mi North 13.8 mph - N/A   Clear
3:35 PM 46.2 °F 41.2 °F 28.0 °F 49% 30.28 in 10.0 mi North 10.4 mph 18.4 mph N/A   Clear
3:55 PM 46.6 °F - 29.5 °F 51% 30.28 in 10.0 mi NNE 8.1 mph - N/A   Clear
4:15 PM 46.4 °F 41.5 °F 30.0 °F 53% 30.27 in 10.0 mi North 10.4 mph - N/A   Clear
4:35 PM 46.0 °F 40.2 °F 30.2 °F 54% 30.26 in 10.0 mi NE 12.7 mph 17.3 mph N/A   Clear
4:55 PM 45.3 °F 40.1 °F 29.7 °F 54% 30.27 in 10.0 mi NE 10.4 mph - N/A   Clear
5:15 PM 44.6 °F 40.2 °F 29.7 °F 56% 30.27 in 10.0 mi NNE 8.1 mph - N/A   Clear
5:35 PM 43.7 °F 40.3 °F 30.0 °F 59% 30.27 in 10.0 mi NNE 5.8 mph - N/A   Clear
5:55 PM 43.2 °F 41.5 °F 30.2 °F 60% 30.27 in 10.0 mi North 3.5 mph - N/A   Clear
6:15 PM 42.8 °F 41.1 °F 30.2 °F 61% 30.27 in 10.0 mi North 3.5 mph - N/A   Clear
6:35 PM 43.0 °F 41.3 °F 31.3 °F 63% 30.27 in 10.0 mi NNE 3.5 mph - N/A   Clear
6:55 PM 43.7 °F 42.1 °F 31.8 °F 63% 30.28 in 10.0 mi North 3.5 mph - N/A   Clear
7:15 PM 43.7 °F - 32.0 °F 63% 30.28 in 10.0 mi Calm Calm - N/A   Clear
7:35 PM 43.7 °F 42.1 °F 32.0 °F 63% 30.27 in 10.0 mi North 3.5 mph - N/A   Clear
7:55 PM 43.9 °F - 32.0 °F 63% 30.28 in 10.0 mi Calm Calm - N/A   Clear
8:15 PM 43.9 °F 42.3 °F 32.4 °F 64% 30.27 in 10.0 mi North 3.5 mph - N/A   Clear
8:35 PM 43.7 °F - 32.2 °F 64% 30.27 in 10.0 mi Calm Calm - N/A   Clear
8:55 PM 43.7 °F 41.1 °F 32.5 °F 65% 30.28 in 10.0 mi NNW 4.6 mph - N/A   Clear
9:15 PM 43.7 °F 41.1 °F 32.2 °F 64% 30.29 in 10.0 mi NW 4.6 mph - N/A   Clear
9:35 PM 43.3 °F 39.9 °F 32.7 °F 66% 30.29 in 10.0 mi NNW 5.8 mph - N/A   Scattered Clouds
9:55 PM 43.7 °F 41.1 °F 32.7 °F 65% 30.29 in 10.0 mi NW 4.6 mph - N/A   Scattered Clouds
10:15 PM 43.0 °F 39.5 °F 32.0 °F 65% 30.29 in 10.0 mi NNW 5.8 mph - N/A   Scattered Clouds
10:35 PM 42.8 °F 40.1 °F 32.0 °F 66% 30.28 in 10.0 mi NNW 4.6 mph - N/A   Scattered Clouds
10:55 PM 43.0 °F 40.3 °F 31.6 °F 64% 30.28 in 10.0 mi NNW 4.6 mph - N/A   Scattered Clouds
11:15 PM 41.9 °F 36.9 °F 32.0 °F 68% 30.28 in 10.0 mi NNW 8.1 mph - N/A   Scattered Clouds
11:35 PM 42.1 °F 38.4 °F 31.8 °F 67% 30.27 in 10.0 mi NNW 5.8 mph - N/A   Scattered Clouds
11:55 PM 41.9 °F 38.2 °F 32.0 °F 68% 30.27 in 10.0 mi NNW 5.8 mph - N/A   Clear